Brightway — 9V8755 — position and weather

sailwx.info

Track history (hours):
 
Tides and Currents Weather Stations Pressure Air Temp Water Temp Dewpoint Dewpoint Depression Visibility Wind Speed Wind Dir Waves Ship Positions

Brightway

Last reported at 2014-Jun-26 16:23 UTC. Time now 2014-Aug-01 13:56 UTC.
Position N 01°19' E 103°18'.
Warning: this ship's position is 35 days out of date.

Length 274 m; draft 9.5 m.

Type: Tanker. MMSI: 566422000.

Date/timePositionNaut miles runAvg speedWind from/ knotsBaromVisibWave heightAir tempDewpointWater temp
2014-Jun-26 16:23N 01°19' E 103°18'1012.4
2014-Jun-26 15:33N 01°13' E 103°27'1313.0
2014-Jun-26 14:33N 01°11' E 103°40'2 1.9
2014-Jun-26 13:33N 01°12' E 103°41'0 0.1
2014-Jun-26 12:33N 01°12' E 103°41'0 0.1
2014-Jun-26 11:27N 01°12' E 103°41'0 0.1
2014-Jun-26 10:33N 01°12' E 103°41'0 0.1
2014-Jun-26 09:33N 01°12' E 103°41'0 0.0
2014-Jun-26 07:33N 01°12' E 103°41'0 0.0
2014-Jun-26 06:33N 01°12' E 103°41'0 0.2
2014-Jun-26 05:33N 01°12' E 103°42'0 0.1
2014-Jun-26 04:30N 01°12' E 103°42'0 0.0
2014-Jun-26 03:27N 01°12' E 103°42'0 0.0
2014-Jun-26 02:33N 01°12' E 103°42'0 0.1
2014-Jun-26 01:33N 01°12' E 103°42'0 0.0
2014-Jun-26 00:33N 01°12' E 103°42'0 0.1
2014-Jun-25 23:33N 01°12' E 103°42'0 0.0
2014-Jun-25 22:33N 01°12' E 103°42'0 0.0
2014-Jun-25 21:30N 01°12' E 103°42'0 0.0
2014-Jun-25 20:30N 01°12' E 103°42'0 0.0
2014-Jun-25 19:33N 01°12' E 103°42'0 0.0
2014-Jun-25 18:33N 01°12' E 103°42'0 0.0
2014-Jun-25 17:33N 01°12' E 103°42'0 0.0
2014-Jun-25 16:33N 01°12' E 103°42'0 0.0
2014-Jun-25 15:30N 01°12' E 103°42'0 0.0
2014-Jun-25 14:33N 01°12' E 103°42'0 0.1
2014-Jun-25 13:33N 01°12' E 103°42'0 0.1
2014-Jun-25 12:33N 01°12' E 103°42'0 0.2
2014-Jun-25 11:33N 01°12' E 103°41'0 0.0
2014-Jun-25 10:30N 01°12' E 103°41'0 0.1
2014-Jun-25 09:33N 01°12' E 103°41'0 0.1
2014-Jun-25 08:30N 01°12' E 103°41'0 0.0
2014-Jun-25 07:33N 01°12' E 103°41'0 0.0
2014-Jun-25 06:33N 01°12' E 103°41'0 0.1
2014-Jun-25 05:30N 01°12' E 103°41'0 0.3
2014-Jun-25 04:33N 01°12' E 103°42'0 0.0
2014-Jun-25 03:30N 01°12' E 103°42'0 0.1
2014-Jun-25 02:33N 01°12' E 103°42'0 0.0
2014-Jun-25 01:24N 01°12' E 103°42'0 0.1
2014-Jun-25 00:33N 01°12' E 103°42'0 0.1
2014-Jun-24 23:33N 01°12' E 103°42'0 0.2
2014-Jun-24 22:33N 01°12' E 103°42'0 0.0
2014-Jun-24 21:33N 01°12' E 103°42'0 0.0
2014-Jun-24 20:33N 01°12' E 103°42'0 0.0
2014-Jun-24 19:27N 01°12' E 103°42'0 0.0
2014-Jun-24 18:33N 01°12' E 103°42'0 0.0
2014-Jun-24 17:33N 01°12' E 103°42'0 0.0
2014-Jun-24 16:33N 01°12' E 103°42'0 0.0
2014-Jun-24 15:33N 01°12' E 103°42'0 0.0
2014-Jun-24 14:33N 01°12' E 103°42'0 0.0
2014-Jun-24 13:33N 01°12' E 103°42'0 0.1
2014-Jun-24 12:33N 01°12' E 103°41'0 0.2
2014-Jun-24 11:33N 01°12' E 103°41'1 0.7
2014-Jun-24 10:33N 01°12' E 103°41'5 4.7
2014-Jun-24 09:34N 01°13' E 103°36'3 3.0
2014-Jun-24 08:33N 01°11' E 103°34'2 2.2
2014-Jun-24 07:28N 01°09' E 103°32'0 0.0
2014-Jun-24 06:28N 01°09' E 103°32'0 0.1
2014-Jun-24 05:04N 01°09' E 103°32'0 0.3
2014-Jun-24 04:31N 01°09' E 103°33'0 0.1
2014-Jun-24 03:25N 01°09' E 103°33'0 0.0
2014-Jun-24 02:31N 01°09' E 103°33'0 0.0
2014-Jun-24 01:22N 01°09' E 103°33'0 0.1
2014-Jun-24 00:31N 01°09' E 103°33'0 0.1
2014-Jun-23 23:25N 01°09' E 103°33'0 0.1
2014-Jun-23 22:31N 01°09' E 103°32'0 0.1
2014-Jun-23 21:28N 01°09' E 103°32'0 0.0
2014-Jun-23 20:31N 01°09' E 103°32'0 0.1
2014-Jun-23 19:22N 01°09' E 103°32'0 0.0
2014-Jun-23 18:31N 01°09' E 103°32'0 0.2
2014-Jun-23 17:28N 01°09' E 103°33'0 0.1
2014-Jun-23 16:28N 01°09' E 103°33'2 2.2
2014-Jun-23 15:33N 01°11' E 103°33'4 4.1
2014-Jun-23 14:34N 01°11' E 103°37'11 5.5
2014-Jun-23 12:33N 01°11' E 103°48'6 5.6
2014-Jun-23 11:34N 01°13' E 103°53'3 2.3
2014-Jun-23 10:25N 01°15' E 103°55'0 0.1
2014-Jun-23 09:25N 01°15' E 103°55'0 0.1
2014-Jun-23 08:19N 01°15' E 103°55'0 0.0
2014-Jun-23 07:25N 01°15' E 103°55'0 0.1
2014-Jun-23 06:25N 01°15' E 103°55'0 0.0
2014-Jun-23 05:25N 01°15' E 103°55'0 0.0
2014-Jun-23 04:28N 01°15' E 103°55'0 0.0
2014-Jun-23 03:28N 01°15' E 103°55'0 0.0
2014-Jun-23 02:31N 01°15' E 103°55'0 0.0
2014-Jun-23 01:31N 01°15' E 103°55'0 0.0
2014-Jun-23 00:31N 01°15' E 103°55'0 0.0
2014-Jun-22 23:25N 01°15' E 103°55'0 0.0
2014-Jun-22 22:31N 01°15' E 103°55'0 0.0
2014-Jun-22 21:31N 01°15' E 103°55'0 0.0
2014-Jun-22 20:28N 01°15' E 103°55'0 0.0
2014-Jun-22 19:31N 01°15' E 103°55'0 0.0
2014-Jun-22 18:31N 01°15' E 103°55'0 0.0
2014-Jun-22 17:31N 01°15' E 103°55'0 0.0
2014-Jun-22 16:25N 01°15' E 103°55'0 0.0
2014-Jun-22 15:31N 01°15' E 103°55'0 0.0
2014-Jun-22 14:31N 01°15' E 103°55'0 0.0
2014-Jun-22 13:31N 01°15' E 103°55'0 0.0
2014-Jun-22 12:28N 01°15' E 103°55'0 0.0
2014-Jun-22 11:25N 01°15' E 103°55'0 0.1
2014-Jun-22 10:32N 01°15' E 103°55'1 1.0
2014-Jun-22 09:32N 01°16' E 103°55'  
Track history (hours):
 
Tides and Currents Weather Stations Pressure Air Temp Water Temp Dewpoint Dewpoint Depression Visibility Wind Speed Wind Dir Waves Ship Positions

Brightway

Last reported at 2014-Jun-26 16:23 UTC. Time now 2014-Aug-01 13:56 UTC.
Position N 01°19' E 103°18'.
Warning: this ship's position is 35 days out of date.

Length 274 m; draft 9.5 m.

Type: Tanker. MMSI: 566422000.

Date/timePositionNaut miles runAvg speedWind from/ knotsBaromVisibWave heightAir tempDewpointWater temp
2014-Jun-26 16:23N 01°19' E 103°18'1012.4
2014-Jun-26 15:33N 01°13' E 103°27'1313.0
2014-Jun-26 14:33N 01°11' E 103°40'2 1.9
2014-Jun-26 13:33N 01°12' E 103°41'0 0.1
2014-Jun-26 12:33N 01°12' E 103°41'0 0.1
2014-Jun-26 11:27N 01°12' E 103°41'0 0.1
2014-Jun-26 10:33N 01°12' E 103°41'0 0.1
2014-Jun-26 09:33N 01°12' E 103°41'0 0.0
2014-Jun-26 07:33N 01°12' E 103°41'0 0.0
2014-Jun-26 06:33N 01°12' E 103°41'0 0.2
2014-Jun-26 05:33N 01°12' E 103°42'0 0.1
2014-Jun-26 04:30N 01°12' E 103°42'0 0.0
2014-Jun-26 03:27N 01°12' E 103°42'0 0.0
2014-Jun-26 02:33N 01°12' E 103°42'0 0.1
2014-Jun-26 01:33N 01°12' E 103°42'0 0.0
2014-Jun-26 00:33N 01°12' E 103°42'0 0.1
2014-Jun-25 23:33N 01°12' E 103°42'0 0.0
2014-Jun-25 22:33N 01°12' E 103°42'0 0.0
2014-Jun-25 21:30N 01°12' E 103°42'0 0.0
2014-Jun-25 20:30N 01°12' E 103°42'0 0.0
2014-Jun-25 19:33N 01°12' E 103°42'0 0.0
2014-Jun-25 18:33N 01°12' E 103°42'0 0.0
2014-Jun-25 17:33N 01°12' E 103°42'0 0.0
2014-Jun-25 16:33N 01°12' E 103°42'0 0.0
2014-Jun-25 15:30N 01°12' E 103°42'0 0.0
2014-Jun-25 14:33N 01°12' E 103°42'0 0.1
2014-Jun-25 13:33N 01°12' E 103°42'0 0.1
2014-Jun-25 12:33N 01°12' E 103°42'0 0.2
2014-Jun-25 11:33N 01°12' E 103°41'0 0.0
2014-Jun-25 10:30N 01°12' E 103°41'0 0.1
2014-Jun-25 09:33N 01°12' E 103°41'0 0.1
2014-Jun-25 08:30N 01°12' E 103°41'0 0.0
2014-Jun-25 07:33N 01°12' E 103°41'0 0.0
2014-Jun-25 06:33N 01°12' E 103°41'0 0.1
2014-Jun-25 05:30N 01°12' E 103°41'0 0.3
2014-Jun-25 04:33N 01°12' E 103°42'0 0.0
2014-Jun-25 03:30N 01°12' E 103°42'0 0.1
2014-Jun-25 02:33N 01°12' E 103°42'0 0.0
2014-Jun-25 01:24N 01°12' E 103°42'0 0.1
2014-Jun-25 00:33N 01°12' E 103°42'0 0.1
2014-Jun-24 23:33N 01°12' E 103°42'0 0.2
2014-Jun-24 22:33N 01°12' E 103°42'0 0.0
2014-Jun-24 21:33N 01°12' E 103°42'0 0.0
2014-Jun-24 20:33N 01°12' E 103°42'0 0.0
2014-Jun-24 19:27N 01°12' E 103°42'0 0.0
2014-Jun-24 18:33N 01°12' E 103°42'0 0.0
2014-Jun-24 17:33N 01°12' E 103°42'0 0.0
2014-Jun-24 16:33N 01°12' E 103°42'0 0.0
2014-Jun-24 15:33N 01°12' E 103°42'0 0.0
2014-Jun-24 14:33N 01°12' E 103°42'0 0.0
2014-Jun-24 13:33N 01°12' E 103°42'0 0.1
2014-Jun-24 12:33N 01°12' E 103°41'0 0.2
2014-Jun-24 11:33N 01°12' E 103°41'1 0.7
2014-Jun-24 10:33N 01°12' E 103°41'5 4.7
2014-Jun-24 09:34N 01°13' E 103°36'3 3.0
2014-Jun-24 08:33N 01°11' E 103°34'2 2.2
2014-Jun-24 07:28N 01°09' E 103°32'0 0.0
2014-Jun-24 06:28N 01°09' E 103°32'0 0.1
2014-Jun-24 05:04N 01°09' E 103°32'0 0.3
2014-Jun-24 04:31N 01°09' E 103°33'0 0.1
2014-Jun-24 03:25N 01°09' E 103°33'0 0.0
2014-Jun-24 02:31N 01°09' E 103°33'0 0.0
2014-Jun-24 01:22N 01°09' E 103°33'0 0.1
2014-Jun-24 00:31N 01°09' E 103°33'0 0.1
2014-Jun-23 23:25N 01°09' E 103°33'0 0.1
2014-Jun-23 22:31N 01°09' E 103°32'0 0.1
2014-Jun-23 21:28N 01°09' E 103°32'0 0.0
2014-Jun-23 20:31N 01°09' E 103°32'0 0.1
2014-Jun-23 19:22N 01°09' E 103°32'0 0.0
2014-Jun-23 18:31N 01°09' E 103°32'0 0.2
2014-Jun-23 17:28N 01°09' E 103°33'0 0.1
2014-Jun-23 16:28N 01°09' E 103°33'2 2.2
2014-Jun-23 15:33N 01°11' E 103°33'4 4.1
2014-Jun-23 14:34N 01°11' E 103°37'11 5.5
2014-Jun-23 12:33N 01°11' E 103°48'6 5.6
2014-Jun-23 11:34N 01°13' E 103°53'3 2.3
2014-Jun-23 10:25N 01°15' E 103°55'0 0.1
2014-Jun-23 09:25N 01°15' E 103°55'0 0.1
2014-Jun-23 08:19N 01°15' E 103°55'0 0.0
2014-Jun-23 07:25N 01°15' E 103°55'0 0.1
2014-Jun-23 06:25N 01°15' E 103°55'0 0.0
2014-Jun-23 05:25N 01°15' E 103°55'0 0.0
2014-Jun-23 04:28N 01°15' E 103°55'0 0.0
2014-Jun-23 03:28N 01°15' E 103°55'0 0.0
2014-Jun-23 02:31N 01°15' E 103°55'0 0.0
2014-Jun-23 01:31N 01°15' E 103°55'0 0.0
2014-Jun-23 00:31N 01°15' E 103°55'0 0.0
2014-Jun-22 23:25N 01°15' E 103°55'0 0.0
2014-Jun-22 22:31N 01°15' E 103°55'0 0.0
2014-Jun-22 21:31N 01°15' E 103°55'0 0.0
2014-Jun-22 20:28N 01°15' E 103°55'0 0.0
2014-Jun-22 19:31N 01°15' E 103°55'0 0.0
2014-Jun-22 18:31N 01°15' E 103°55'0 0.0
2014-Jun-22 17:31N 01°15' E 103°55'0 0.0
2014-Jun-22 16:25N 01°15' E 103°55'0 0.0
2014-Jun-22 15:31N 01°15' E 103°55'0 0.0
2014-Jun-22 14:31N 01°15' E 103°55'0 0.0
2014-Jun-22 13:31N 01°15' E 103°55'0 0.0
2014-Jun-22 12:28N 01°15' E 103°55'0 0.0
2014-Jun-22 11:25N 01°15' E 103°55'0 0.1
2014-Jun-22 10:32N 01°15' E 103°55'1 1.0
2014-Jun-22 09:32N 01°16' E 103°55'  

Dump ship's entire track history